createdAt,value
2022-12-05T00:01:22.339Z,18.77
2022-12-05T00:05:22.632Z,18.13
2022-12-05T00:09:22.781Z,18.90
2022-12-05T00:13:22.910Z,18.43
2022-12-05T00:17:25.728Z,17.93
2022-12-05T00:21:30.374Z,18.07
2022-12-05T00:25:31.230Z,17.80
2022-12-05T00:29:31.355Z,16.70
2022-12-05T00:33:34.191Z,17.47
2022-12-05T00:37:34.361Z,17.50
2022-12-05T00:41:34.787Z,17.43
2022-12-05T00:45:36.155Z,16.27
2022-12-05T00:49:38.929Z,16.57
2022-12-05T00:53:39.322Z,17.33
2022-12-05T00:57:40.331Z,18.17
2022-12-05T01:01:43.533Z,17.17
2022-12-05T01:05:46.285Z,18.10
2022-12-05T01:09:46.513Z,18.10
2022-12-05T01:13:47.330Z,17.10
2022-12-05T01:17:47.412Z,17.50
2022-12-05T01:21:50.294Z,17.37
2022-12-05T01:25:54.323Z,16.90
2022-12-05T01:29:54.709Z,17.93
2022-12-05T01:33:57.563Z,16.80
2022-12-05T01:38:00.696Z,17.03
2022-12-05T01:42:00.966Z,18.00
2022-12-05T01:46:01.376Z,17.77
2022-12-05T01:50:03.086Z,17.33
2022-12-05T01:54:08.768Z,16.90
2022-12-05T01:58:12.670Z,17.93
2022-12-05T02:02:16.525Z,18.53
2022-12-05T02:06:17.327Z,18.80
2022-12-05T02:10:21.219Z,17.27
2022-12-05T02:14:35.333Z,18.50
2022-12-05T02:19:00.068Z,19.30
2022-12-05T02:23:28.859Z,18.37
2022-12-05T02:28:18.999Z,18.90
2022-12-05T02:32:34.861Z,19.07
2022-12-05T02:36:43.554Z,19.57
2022-12-05T02:40:54.546Z,19.47
2022-12-05T02:45:02.999Z,20.53
2022-12-05T02:49:11.805Z,20.93
2022-12-05T02:53:18.501Z,21.00
2022-12-05T02:57:20.593Z,20.60
2022-12-05T03:01:22.606Z,19.80
2022-12-05T03:05:42.812Z,20.37
2022-12-05T03:09:51.045Z,20.67
2022-12-05T03:13:57.974Z,21.17
2022-12-05T03:18:04.666Z,22.37
2022-12-05T03:22:17.145Z,20.93
2022-12-05T03:26:35.016Z,20.93
2022-12-05T03:30:41.425Z,21.43
2022-12-05T03:34:56.100Z,22.17
2022-12-05T03:39:10.167Z,22.00
2022-12-05T03:43:16.181Z,20.93
2022-12-05T03:47:23.611Z,21.40
2022-12-05T03:51:31.093Z,21.70
2022-12-05T03:55:40.058Z,21.63
2022-12-05T03:59:47.713Z,22.67
2022-12-05T04:03:53.453Z,21.37
2022-12-05T04:08:02.219Z,22.57
2022-12-05T04:12:12.830Z,22.27
2022-12-05T04:16:34.268Z,22.07
2022-12-05T04:20:52.743Z,21.43
2022-12-05T04:25:07.866Z,20.83
2022-12-05T04:29:23.575Z,20.60
2022-12-05T04:33:36.228Z,19.97
2022-12-05T04:37:45.575Z,22.07
2022-12-05T04:41:53.228Z,20.60
2022-12-05T04:46:00.090Z,18.90
2022-12-05T04:50:02.785Z,18.50
2022-12-05T04:54:11.288Z,15.63
2022-12-05T04:58:15.643Z,13.60
2022-12-05T05:02:24.465Z,14.57
2022-12-05T05:06:24.650Z,13.70
2022-12-05T05:10:33.905Z,12.60
2022-12-05T05:14:34.226Z,11.53
2022-12-05T05:18:37.228Z,10.47
2022-12-05T05:22:37.436Z,10.50
2022-12-05T05:26:40.673Z,12.03
2022-12-05T05:30:40.883Z,11.07
2022-12-05T05:34:43.897Z,10.60
2022-12-05T05:38:46.927Z,9.33
2022-12-05T05:42:49.723Z,8.43
2022-12-05T05:46:49.849Z,8.57
2022-12-05T05:50:52.688Z,7.17
2022-12-05T05:54:52.817Z,7.17
2022-12-05T05:58:59.911Z,6.90
2022-12-05T06:03:00.104Z,6.80
2022-12-05T06:07:02.837Z,8.17
2022-12-05T06:11:07.237Z,7.00
2022-12-05T06:15:09.553Z,6.50
2022-12-05T06:19:09.631Z,7.00
2022-12-05T06:23:12.365Z,7.10
2022-12-05T06:27:12.472Z,8.20
2022-12-05T06:31:14.738Z,7.50
2022-12-05T06:35:18.355Z,7.00
2022-12-05T06:39:21.132Z,8.43
2022-12-05T06:43:21.276Z,7.73
2022-12-05T06:47:21.436Z,7.23
2022-12-05T06:51:21.862Z,8.23
2022-12-05T06:55:24.649Z,7.60
2022-12-05T06:59:25.058Z,8.13
2022-12-05T07:03:25.181Z,8.00
2022-12-05T07:07:25.749Z,8.20
2022-12-05T07:17:36.915Z,7.67
2022-12-05T07:21:55.540Z,8.50
2022-12-05T07:27:28.529Z,8.07
2022-12-05T07:31:34.393Z,7.80
2022-12-05T07:35:34.562Z,8.47
2022-12-05T07:39:35.492Z,8.17
2022-12-05T07:43:35.947Z,8.10
2022-12-05T07:47:38.781Z,7.70
2022-12-05T07:51:39.322Z,8.20
2022-12-05T07:55:41.227Z,7.50
2022-12-05T07:59:41.469Z,7.80
2022-12-05T08:03:46.287Z,6.77
2022-12-05T08:07:47.043Z,6.50
2022-12-05T08:11:52.527Z,7.60
2022-12-05T08:15:54.857Z,7.07
2022-12-05T08:19:59.662Z,7.37
2022-12-05T08:24:01.955Z,7.20
2022-12-05T08:28:03.782Z,7.20
2022-12-05T08:32:04.290Z,7.40
2022-12-05T08:36:10.692Z,7.03
2022-12-05T08:40:13.275Z,6.80
2022-12-05T08:44:17.219Z,6.63
2022-12-05T08:48:17.551Z,6.97
2022-12-05T08:52:25.798Z,6.53
2022-12-05T08:56:27.597Z,6.40
2022-12-05T09:00:28.479Z,8.10
2022-12-05T09:04:34.229Z,7.30
2022-12-05T09:08:42.967Z,7.90
2022-12-05T09:12:45.133Z,8.57
2022-12-05T09:17:02.405Z,8.77
2022-12-05T09:26:31.906Z,8.63
2022-12-05T09:31:41.429Z,8.40
2022-12-05T09:36:21.585Z,9.60
2022-12-05T09:41:09.815Z,9.43
2022-12-05T09:45:38.433Z,8.20
2022-12-05T09:49:59.218Z,7.93
2022-12-05T09:54:14.134Z,8.47
2022-12-05T09:58:42.432Z,8.00
2022-12-05T10:03:01.595Z,8.13
2022-12-05T10:07:19.565Z,7.73
2022-12-05T10:11:32.187Z,7.70
2022-12-05T10:15:46.330Z,8.10
2022-12-05T10:19:58.745Z,8.43
2022-12-05T10:24:18.228Z,7.80
2022-12-05T10:33:31.174Z,9.30
2022-12-05T10:38:07.526Z,9.10
2022-12-05T10:42:24.676Z,8.53
2022-12-05T10:46:27.616Z,8.90
2022-12-05T10:50:34.296Z,8.43
2022-12-05T10:54:47.405Z,9.67
2022-12-05T10:59:29.885Z,9.23
2022-12-05T11:03:35.670Z,9.37
2022-12-05T11:19:37.821Z,10.00
2022-12-05T11:23:59.808Z,8.63
2022-12-05T11:28:02.533Z,9.83
2022-12-05T11:32:03.644Z,8.80
2022-12-05T11:36:16.211Z,6.73
2022-12-05T11:40:32.730Z,6.57
2022-12-05T11:45:07.062Z,5.60
2022-12-05T11:49:29.052Z,5.63
2022-12-05T11:54:11.040Z,5.40
2022-12-05T11:58:43.976Z,5.73
2022-12-05T12:03:33.045Z,5.57
2022-12-05T12:07:59.307Z,6.23
2022-12-05T12:39:22.050Z,7.83
2022-12-05T12:49:24.001Z,9.00
2022-12-05T12:59:37.475Z,8.50
2022-12-05T13:04:25.827Z,8.17
2022-12-05T13:18:57.083Z,9.27
2022-12-05T13:28:55.665Z,9.90
2022-12-05T13:39:06.251Z,10.57
2022-12-05T13:43:16.157Z,10.13
2022-12-05T13:47:37.572Z,10.67
2022-12-05T13:51:49.080Z,11.73
2022-12-05T13:56:08.681Z,11.73
2022-12-05T14:00:30.451Z,10.47
2022-12-05T14:05:04.532Z,11.00
2022-12-05T14:09:42.177Z,17.07
2022-12-05T14:13:54.210Z,12.43
2022-12-05T14:18:21.425Z,12.03
2022-12-05T14:23:11.058Z,17.00
2022-12-05T14:27:34.847Z,13.40
2022-12-05T14:32:26.186Z,11.47
2022-12-05T14:41:37.511Z,11.77
2022-12-05T14:45:48.100Z,11.17
2022-12-05T14:50:25.320Z,10.33
2022-12-05T14:54:29.529Z,9.33
2022-12-05T14:58:43.424Z,8.20
2022-12-05T15:02:51.025Z,7.67
2022-12-05T15:07:16.380Z,7.23
2022-12-05T15:11:31.053Z,7.57
2022-12-05T15:15:43.946Z,7.27
2022-12-05T15:19:54.392Z,7.20
2022-12-05T15:24:01.686Z,10.30
2022-12-05T15:28:09.935Z,11.60
2022-12-05T15:32:21.597Z,10.73
2022-12-05T15:36:27.499Z,9.90
2022-12-05T15:40:33.963Z,9.67
2022-12-05T15:44:38.299Z,11.80
2022-12-05T15:48:38.687Z,15.53
2022-12-05T15:52:45.726Z,13.60
2022-12-05T15:56:51.751Z,13.90
2022-12-05T16:01:01.986Z,10.73
2022-12-05T16:05:03.868Z,9.87
2022-12-05T16:09:11.795Z,10.20
2022-12-05T16:13:18.876Z,12.33
2022-12-05T16:17:23.876Z,12.80
2022-12-05T16:21:38.929Z,12.03
2022-12-05T16:25:40.422Z,10.93
2022-12-05T16:29:40.590Z,14.03
2022-12-05T16:33:44.090Z,11.97
2022-12-05T16:37:44.421Z,11.90
2022-12-05T16:41:45.122Z,16.13
2022-12-05T16:45:48.074Z,12.17
2022-12-05T16:49:50.823Z,15.77
2022-12-05T16:53:54.693Z,16.17
2022-12-05T16:57:54.795Z,14.70
2022-12-05T17:01:54.962Z,14.83
2022-12-05T17:05:58.015Z,15.27
2022-12-05T17:09:58.172Z,20.60
2022-12-05T17:14:00.965Z,18.80
2022-12-05T17:18:01.612Z,16.47
2022-12-05T17:22:04.414Z,17.77
2022-12-05T17:26:05.052Z,17.57
2022-12-05T17:30:05.205Z,18.07
2022-12-05T17:34:16.381Z,16.97
2022-12-05T17:38:19.151Z,17.57
2022-12-05T17:42:19.237Z,16.33
2022-12-05T17:46:22.437Z,13.90
2022-12-05T17:50:25.514Z,15.23
2022-12-05T17:54:28.678Z,14.73
2022-12-05T17:58:28.898Z,14.80
2022-12-05T18:02:29.083Z,14.03
2022-12-05T18:06:29.409Z,16.63
2022-12-05T18:10:32.361Z,17.13
2022-12-05T18:14:36.138Z,15.87
2022-12-05T18:18:36.331Z,15.97
2022-12-05T18:22:36.460Z,17.23
2022-12-05T18:26:39.130Z,21.10
2022-12-05T18:30:39.235Z,21.00
2022-12-05T18:34:39.497Z,19.97
2022-12-05T18:38:40.823Z,18.47
2022-12-05T18:42:43.611Z,18.13
2022-12-05T18:46:43.786Z,15.57
2022-12-05T18:50:44.109Z,14.17
2022-12-05T18:54:45.986Z,12.23
2022-12-05T18:59:02.571Z,11.63
2022-12-05T19:03:06.602Z,10.90
2022-12-05T19:07:09.563Z,9.67
2022-12-05T19:11:10.198Z,10.40
2022-12-05T19:15:14.184Z,10.70
2022-12-05T19:19:17.495Z,10.37
2022-12-05T19:23:17.917Z,11.97
2022-12-05T19:27:18.232Z,9.97
2022-12-05T19:31:25.424Z,12.13
2022-12-05T19:35:25.562Z,9.30
2022-12-05T19:39:30.254Z,9.33
2022-12-05T19:43:33.470Z,10.00
2022-12-05T19:47:36.495Z,9.43
2022-12-05T19:51:38.063Z,10.97
2022-12-05T19:55:38.346Z,9.73
2022-12-05T19:59:38.648Z,10.67
2022-12-05T20:03:45.546Z,10.10
2022-12-05T20:07:45.806Z,10.20
2022-12-05T20:11:54.559Z,9.73
2022-12-05T20:15:55.961Z,9.63
2022-12-05T20:19:59.216Z,10.00
2022-12-05T20:24:02.443Z,11.40
2022-12-05T20:28:02.723Z,11.40
2022-12-05T20:32:02.937Z,11.83
2022-12-05T20:36:12.560Z,11.50
2022-12-05T20:40:13.551Z,12.47
2022-12-05T20:44:17.818Z,10.30
2022-12-05T20:48:17.893Z,10.60
2022-12-05T20:52:20.672Z,10.10
2022-12-05T20:56:23.304Z,12.93
2022-12-05T21:00:24.482Z,10.60
2022-12-05T21:04:24.717Z,9.87
2022-12-05T21:08:27.613Z,9.60
2022-12-05T21:12:27.801Z,10.73
2022-12-05T21:16:28.173Z,11.23
2022-12-05T21:20:28.752Z,11.00
2022-12-05T21:24:31.626Z,10.63
2022-12-05T21:28:33.610Z,11.17
2022-12-05T21:32:34.884Z,10.97
2022-12-05T21:36:38.369Z,11.33
2022-12-05T21:40:45.790Z,10.73
2022-12-05T21:44:46.096Z,11.43
2022-12-05T21:48:46.457Z,11.33
2022-12-05T21:52:46.583Z,11.77
2022-12-05T21:56:49.348Z,12.80
2022-12-05T22:00:49.476Z,12.23
2022-12-05T22:04:49.806Z,11.80
2022-12-05T22:08:49.960Z,11.73
2022-12-05T22:12:52.700Z,12.40
2022-12-05T22:16:53.555Z,13.10
2022-12-05T22:20:59.552Z,13.90
2022-12-05T22:25:00.031Z,13.27
2022-12-05T22:29:03.005Z,13.90
2022-12-05T22:33:03.125Z,14.27
2022-12-05T22:37:03.238Z,14.23
2022-12-05T22:41:08.604Z,14.60
2022-12-05T22:45:12.651Z,14.70
2022-12-05T22:49:13.842Z,14.10
2022-12-05T22:53:13.888Z,14.10
2022-12-05T22:57:14.275Z,14.57
2022-12-05T23:01:19.859Z,13.73
2022-12-05T23:05:20.186Z,12.90
2022-12-05T23:09:20.636Z,13.90
2022-12-05T23:13:20.923Z,13.17
2022-12-05T23:17:23.849Z,14.27
2022-12-05T23:21:29.518Z,13.70
2022-12-05T23:25:29.809Z,12.87
2022-12-05T23:29:30.072Z,12.60
2022-12-05T23:33:32.956Z,12.37
2022-12-05T23:37:33.327Z,12.60
2022-12-05T23:41:33.991Z,12.57
2022-12-05T23:45:34.276Z,12.40
2022-12-05T23:49:38.024Z,13.10
2022-12-05T23:53:41.648Z,13.60
2022-12-05T23:57:42.569Z,12.87
